sensor_id;sensor_type;location;lat;lon;timestamp;P1;durP1;ratioP1;P2;durP2;ratioP2
30020;SDS011;16861;52.294;7.760;2023-02-28T00:00:51;3.97;;;2.40;;
30020;SDS011;16861;52.294;7.760;2023-02-28T00:03:18;4.82;;;2.70;;
30020;SDS011;16861;52.294;7.760;2023-02-28T00:05:44;9.55;;;3.55;;
30020;SDS011;16861;52.294;7.760;2023-02-28T00:08:11;8.30;;;3.17;;
30020;SDS011;16861;52.294;7.760;2023-02-28T00:10:39;5.45;;;2.97;;
30020;SDS011;16861;52.294;7.760;2023-02-28T00:13:06;6.72;;;2.53;;
30020;SDS011;16861;52.294;7.760;2023-02-28T00:15:32;9.50;;;3.70;;
30020;SDS011;16861;52.294;7.760;2023-02-28T00:17:59;9.95;;;4.15;;
30020;SDS011;16861;52.294;7.760;2023-02-28T00:20:26;6.28;;;3.70;;
30020;SDS011;16861;52.294;7.760;2023-02-28T00:22:53;7.93;;;4.00;;
30020;SDS011;16861;52.294;7.760;2023-02-28T00:25:22;5.63;;;2.78;;
30020;SDS011;16861;52.294;7.760;2023-02-28T00:27:50;7.03;;;3.22;;
30020;SDS011;16861;52.294;7.760;2023-02-28T00:30:20;5.10;;;3.40;;
30020;SDS011;16861;52.294;7.760;2023-02-28T00:32:50;4.30;;;2.75;;
30020;SDS011;16861;52.294;7.760;2023-02-28T00:35:16;6.68;;;3.00;;
30020;SDS011;16861;52.294;7.760;2023-02-28T00:37:43;8.90;;;3.15;;
30020;SDS011;16861;52.294;7.760;2023-02-28T00:40:10;5.15;;;2.90;;
30020;SDS011;16861;52.294;7.760;2023-02-28T00:42:38;5.18;;;3.08;;
30020;SDS011;16861;52.294;7.760;2023-02-28T00:45:05;5.68;;;2.72;;
30020;SDS011;16861;52.294;7.760;2023-02-28T00:47:34;6.07;;;2.42;;
30020;SDS011;16861;52.294;7.760;2023-02-28T00:50:00;4.97;;;2.97;;
30020;SDS011;16861;52.294;7.760;2023-02-28T00:52:27;5.55;;;3.03;;
30020;SDS011;16861;52.294;7.760;2023-02-28T00:54:54;3.70;;;2.72;;
30020;SDS011;16861;52.294;7.760;2023-02-28T00:57:20;6.32;;;3.25;;
30020;SDS011;16861;52.294;7.760;2023-02-28T00:59:47;4.82;;;2.50;;
30020;SDS011;16861;52.294;7.760;2023-02-28T01:02:13;5.50;;;2.80;;
30020;SDS011;16861;52.294;7.760;2023-02-28T01:04:40;3.83;;;2.35;;
30020;SDS011;16861;52.294;7.760;2023-02-28T01:07:06;3.88;;;2.70;;
30020;SDS011;16861;52.294;7.760;2023-02-28T01:09:33;3.72;;;2.63;;
30020;SDS011;16861;52.294;7.760;2023-02-28T01:11:59;4.50;;;2.65;;
30020;SDS011;16861;52.294;7.760;2023-02-28T01:14:26;8.82;;;2.63;;
30020;SDS011;16861;52.294;7.760;2023-02-28T01:16:52;4.72;;;2.60;;
30020;SDS011;16861;52.294;7.760;2023-02-28T01:19:19;5.47;;;2.55;;
30020;SDS011;16861;52.294;7.760;2023-02-28T01:21:45;4.22;;;2.42;;
30020;SDS011;16861;52.294;7.760;2023-02-28T01:24:12;3.95;;;2.55;;
30020;SDS011;16861;52.294;7.760;2023-02-28T01:26:38;6.50;;;2.42;;
30020;SDS011;16861;52.294;7.760;2023-02-28T01:29:05;2.47;;;1.90;;
30020;SDS011;16861;52.294;7.760;2023-02-28T01:31:31;3.22;;;2.17;;
30020;SDS011;16861;52.294;7.760;2023-02-28T01:33:58;5.95;;;2.58;;
30020;SDS011;16861;52.294;7.760;2023-02-28T01:36:25;3.95;;;2.40;;
30020;SDS011;16861;52.294;7.760;2023-02-28T01:38:52;4.03;;;2.17;;
30020;SDS011;16861;52.294;7.760;2023-02-28T01:41:20;3.38;;;2.30;;
30020;SDS011;16861;52.294;7.760;2023-02-28T01:43:53;4.13;;;2.38;;
30020;SDS011;16861;52.294;7.760;2023-02-28T01:46:19;3.38;;;2.10;;
30020;SDS011;16861;52.294;7.760;2023-02-28T01:49:05;4.53;;;2.03;;
30020;SDS011;16861;52.294;7.760;2023-02-28T01:54:07;4.78;;;2.15;;
30020;SDS011;16861;52.294;7.760;2023-02-28T01:56:47;4.70;;;2.30;;
30020;SDS011;16861;52.294;7.760;2023-02-28T01:59:21;3.80;;;2.35;;
30020;SDS011;16861;52.294;7.760;2023-02-28T02:01:53;3.92;;;2.20;;
30020;SDS011;16861;52.294;7.760;2023-02-28T02:04:20;3.28;;;2.25;;
30020;SDS011;16861;52.294;7.760;2023-02-28T02:06:49;5.70;;;2.65;;
30020;SDS011;16861;52.294;7.760;2023-02-28T02:09:16;5.60;;;2.90;;
30020;SDS011;16861;52.294;7.760;2023-02-28T02:11:43;3.70;;;2.45;;
30020;SDS011;16861;52.294;7.760;2023-02-28T02:19:36;5.03;;;2.38;;
30020;SDS011;16861;52.294;7.760;2023-02-28T02:30:56;3.00;;;1.90;;
30020;SDS011;16861;52.294;7.760;2023-02-28T02:36:00;3.10;;;2.00;;
30020;SDS011;16861;52.294;7.760;2023-02-28T02:38:33;5.47;;;2.28;;
30020;SDS011;16861;52.294;7.760;2023-02-28T02:41:23;4.90;;;2.22;;
30020;SDS011;16861;52.294;7.760;2023-02-28T02:44:04;3.67;;;2.30;;
30020;SDS011;16861;52.294;7.760;2023-02-28T02:46:42;3.05;;;2.08;;
30020;SDS011;16861;52.294;7.760;2023-02-28T02:49:23;5.20;;;2.80;;
30020;SDS011;16861;52.294;7.760;2023-02-28T02:51:52;4.68;;;2.58;;
30020;SDS011;16861;52.294;7.760;2023-02-28T02:54:21;5.68;;;2.97;;
30020;SDS011;16861;52.294;7.760;2023-02-28T02:56:55;6.22;;;2.75;;
30020;SDS011;16861;52.294;7.760;2023-02-28T02:59:25;8.43;;;3.72;;
30020;SDS011;16861;52.294;7.760;2023-02-28T03:01:56;4.25;;;2.70;;
30020;SDS011;16861;52.294;7.760;2023-02-28T03:04:27;4.88;;;3.00;;
30020;SDS011;16861;52.294;7.760;2023-02-28T03:06:58;5.97;;;2.97;;
30020;SDS011;16861;52.294;7.760;2023-02-28T03:09:25;5.82;;;2.55;;
30020;SDS011;16861;52.294;7.760;2023-02-28T03:11:53;4.25;;;2.83;;
30020;SDS011;16861;52.294;7.760;2023-02-28T03:20:06;4.85;;;3.13;;
30020;SDS011;16861;52.294;7.760;2023-02-28T03:28:18;5.45;;;3.13;;
30020;SDS011;16861;52.294;7.760;2023-02-28T03:31:04;5.47;;;3.03;;
30020;SDS011;16861;52.294;7.760;2023-02-28T03:33:38;5.85;;;2.80;;
30020;SDS011;16861;52.294;7.760;2023-02-28T03:36:13;8.52;;;4.00;;
30020;SDS011;16861;52.294;7.760;2023-02-28T03:41:21;7.15;;;3.47;;
30020;SDS011;16861;52.294;7.760;2023-02-28T03:44:01;7.45;;;3.60;;
30020;SDS011;16861;52.294;7.760;2023-02-28T03:46:33;6.25;;;3.35;;
30020;SDS011;16861;52.294;7.760;2023-02-28T03:49:19;5.53;;;3.65;;
30020;SDS011;16861;52.294;7.760;2023-02-28T03:51:49;7.53;;;4.00;;
30020;SDS011;16861;52.294;7.760;2023-02-28T03:54:19;6.28;;;3.45;;
30020;SDS011;16861;52.294;7.760;2023-02-28T03:56:53;9.23;;;3.40;;
30020;SDS011;16861;52.294;7.760;2023-02-28T03:59:32;7.47;;;3.95;;
30020;SDS011;16861;52.294;7.760;2023-02-28T04:02:02;4.88;;;3.28;;
30020;SDS011;16861;52.294;7.760;2023-02-28T04:04:29;4.90;;;3.38;;
30020;SDS011;16861;52.294;7.760;2023-02-28T04:07:03;6.75;;;3.78;;
30020;SDS011;16861;52.294;7.760;2023-02-28T04:09:32;8.40;;;3.80;;
30020;SDS011;16861;52.294;7.760;2023-02-28T04:11:58;5.38;;;3.78;;
30020;SDS011;16861;52.294;7.760;2023-02-28T04:14:25;5.55;;;3.65;;
30020;SDS011;16861;52.294;7.760;2023-02-28T04:16:52;6.10;;;3.85;;
30020;SDS011;16861;52.294;7.760;2023-02-28T04:19:19;6.63;;;3.75;;
30020;SDS011;16861;52.294;7.760;2023-02-28T04:21:50;4.78;;;3.42;;
30020;SDS011;16861;52.294;7.760;2023-02-28T04:24:21;7.20;;;3.00;;
30020;SDS011;16861;52.294;7.760;2023-02-28T04:26:53;6.47;;;3.55;;
30020;SDS011;16861;52.294;7.760;2023-02-28T04:29:25;6.47;;;3.35;;
30020;SDS011;16861;52.294;7.760;2023-02-28T04:31:54;6.32;;;2.97;;
30020;SDS011;16861;52.294;7.760;2023-02-28T04:34:24;7.28;;;3.05;;
30020;SDS011;16861;52.294;7.760;2023-02-28T04:36:52;6.05;;;2.85;;
30020;SDS011;16861;52.294;7.760;2023-02-28T04:39:38;6.38;;;3.10;;
30020;SDS011;16861;52.294;7.760;2023-02-28T04:42:05;4.20;;;2.55;;
30020;SDS011;16861;52.294;7.760;2023-02-28T04:44:32;4.55;;;2.65;;
30020;SDS011;16861;52.294;7.760;2023-02-28T04:46:58;4.30;;;2.90;;
30020;SDS011;16861;52.294;7.760;2023-02-28T04:49:25;6.88;;;2.80;;
30020;SDS011;16861;52.294;7.760;2023-02-28T04:51:52;6.22;;;3.15;;
30020;SDS011;16861;52.294;7.760;2023-02-28T04:54:19;5.95;;;2.58;;
30020;SDS011;16861;52.294;7.760;2023-02-28T04:56:46;3.85;;;2.15;;
30020;SDS011;16861;52.294;7.760;2023-02-28T04:59:16;5.45;;;2.83;;
30020;SDS011;16861;52.294;7.760;2023-02-28T05:01:45;6.10;;;3.00;;
30020;SDS011;16861;52.294;7.760;2023-02-28T05:04:13;4.65;;;2.50;;
30020;SDS011;16861;52.294;7.760;2023-02-28T05:06:41;4.07;;;2.80;;
30020;SDS011;16861;52.294;7.760;2023-02-28T05:09:08;9.32;;;3.15;;
30020;SDS011;16861;52.294;7.760;2023-02-28T05:11:38;4.63;;;2.80;;
30020;SDS011;16861;52.294;7.760;2023-02-28T05:14:12;6.43;;;2.70;;
30020;SDS011;16861;52.294;7.760;2023-02-28T05:16:41;4.85;;;2.58;;
30020;SDS011;16861;52.294;7.760;2023-02-28T05:19:11;4.38;;;2.15;;
30020;SDS011;16861;52.294;7.760;2023-02-28T05:21:38;4.97;;;2.95;;
30020;SDS011;16861;52.294;7.760;2023-02-28T05:24:11;4.60;;;2.75;;
30020;SDS011;16861;52.294;7.760;2023-02-28T05:26:42;4.43;;;2.63;;
30020;SDS011;16861;52.294;7.760;2023-02-28T05:29:09;5.78;;;2.67;;
30020;SDS011;16861;52.294;7.760;2023-02-28T05:31:36;4.45;;;2.50;;
30020;SDS011;16861;52.294;7.760;2023-02-28T05:34:03;4.90;;;2.80;;
30020;SDS011;16861;52.294;7.760;2023-02-28T05:36:30;3.88;;;2.25;;
30020;SDS011;16861;52.294;7.760;2023-02-28T05:38:57;4.18;;;2.50;;
30020;SDS011;16861;52.294;7.760;2023-02-28T05:41:24;4.40;;;2.70;;
30020;SDS011;16861;52.294;7.760;2023-02-28T05:43:52;4.97;;;2.38;;
30020;SDS011;16861;52.294;7.760;2023-02-28T05:46:19;3.88;;;2.72;;
30020;SDS011;16861;52.294;7.760;2023-02-28T05:48:46;4.85;;;2.25;;
30020;SDS011;16861;52.294;7.760;2023-02-28T05:51:14;6.97;;;3.10;;
30020;SDS011;16861;52.294;7.760;2023-02-28T05:53:41;5.38;;;2.25;;
30020;SDS011;16861;52.294;7.760;2023-02-28T05:56:07;3.90;;;2.22;;
30020;SDS011;16861;52.294;7.760;2023-02-28T05:58:34;4.35;;;2.40;;
30020;SDS011;16861;52.294;7.760;2023-02-28T06:01:18;4.30;;;2.50;;
30020;SDS011;16861;52.294;7.760;2023-02-28T06:04:02;3.67;;;2.25;;
30020;SDS011;16861;52.294;7.760;2023-02-28T06:06:30;2.70;;;2.22;;
30020;SDS011;16861;52.294;7.760;2023-02-28T06:08:57;3.58;;;2.33;;
30020;SDS011;16861;52.294;7.760;2023-02-28T06:11:24;4.30;;;2.38;;
30020;SDS011;16861;52.294;7.760;2023-02-28T06:13:55;4.78;;;2.40;;
30020;SDS011;16861;52.294;7.760;2023-02-28T06:16:29;3.28;;;2.25;;
30020;SDS011;16861;52.294;7.760;2023-02-28T06:18:57;7.10;;;2.78;;
30020;SDS011;16861;52.294;7.760;2023-02-28T06:21:25;3.97;;;2.67;;
30020;SDS011;16861;52.294;7.760;2023-02-28T06:23:54;5.97;;;2.83;;
30020;SDS011;16861;52.294;7.760;2023-02-28T06:26:22;5.45;;;2.88;;
30020;SDS011;16861;52.294;7.760;2023-02-28T06:28:49;6.65;;;3.85;;
30020;SDS011;16861;52.294;7.760;2023-02-28T06:31:16;5.20;;;2.80;;
30020;SDS011;16861;52.294;7.760;2023-02-28T06:33:44;5.80;;;2.17;;
30020;SDS011;16861;52.294;7.760;2023-02-28T06:36:12;4.45;;;2.80;;
30020;SDS011;16861;52.294;7.760;2023-02-28T06:38:40;4.80;;;3.00;;
30020;SDS011;16861;52.294;7.760;2023-02-28T06:41:07;4.60;;;2.90;;
30020;SDS011;16861;52.294;7.760;2023-02-28T06:43:35;5.95;;;3.45;;
30020;SDS011;16861;52.294;7.760;2023-02-28T06:46:06;4.63;;;2.63;;
30020;SDS011;16861;52.294;7.760;2023-02-28T06:48:34;4.43;;;2.45;;
30020;SDS011;16861;52.294;7.760;2023-02-28T06:51:11;5.57;;;2.72;;
30020;SDS011;16861;52.294;7.760;2023-02-28T06:53:40;4.40;;;2.53;;
30020;SDS011;16861;52.294;7.760;2023-02-28T06:56:07;4.15;;;2.95;;
30020;SDS011;16861;52.294;7.760;2023-02-28T06:58:36;8.40;;;3.05;;
30020;SDS011;16861;52.294;7.760;2023-02-28T07:01:04;6.65;;;2.72;;
30020;SDS011;16861;52.294;7.760;2023-02-28T07:03:31;6.28;;;3.10;;
30020;SDS011;16861;52.294;7.760;2023-02-28T07:05:59;6.65;;;2.83;;
30020;SDS011;16861;52.294;7.760;2023-02-28T07:08:27;6.65;;;2.90;;
30020;SDS011;16861;52.294;7.760;2023-02-28T07:10:57;3.95;;;2.55;;
30020;SDS011;16861;52.294;7.760;2023-02-28T07:13:24;5.03;;;2.53;;
30020;SDS011;16861;52.294;7.760;2023-02-28T07:16:04;4.38;;;2.95;;
30020;SDS011;16861;52.294;7.760;2023-02-28T07:18:32;4.07;;;3.00;;
30020;SDS011;16861;52.294;7.760;2023-02-28T07:21:03;6.18;;;3.40;;
30020;SDS011;16861;52.294;7.760;2023-02-28T07:23:31;8.48;;;3.50;;
30020;SDS011;16861;52.294;7.760;2023-02-28T07:25:58;6.95;;;3.35;;
30020;SDS011;16861;52.294;7.760;2023-02-28T07:28:25;11.95;;;4.30;;
30020;SDS011;16861;52.294;7.760;2023-02-28T07:30:51;6.75;;;3.45;;
30020;SDS011;16861;52.294;7.760;2023-02-28T07:33:18;8.02;;;3.67;;
30020;SDS011;16861;52.294;7.760;2023-02-28T07:35:45;9.18;;;4.15;;
30020;SDS011;16861;52.294;7.760;2023-02-28T07:38:11;6.57;;;3.95;;
30020;SDS011;16861;52.294;7.760;2023-02-28T07:40:39;5.68;;;3.63;;
30020;SDS011;16861;52.294;7.760;2023-02-28T07:43:06;6.30;;;3.50;;
30020;SDS011;16861;52.294;7.760;2023-02-28T07:45:33;5.40;;;3.88;;
30020;SDS011;16861;52.294;7.760;2023-02-28T07:48:02;6.80;;;3.90;;
30020;SDS011;16861;52.294;7.760;2023-02-28T07:50:30;12.00;;;4.50;;
30020;SDS011;16861;52.294;7.760;2023-02-28T07:52:58;7.38;;;4.07;;
30020;SDS011;16861;52.294;7.760;2023-02-28T07:55:24;5.93;;;3.55;;
30020;SDS011;16861;52.294;7.760;2023-02-28T07:57:51;6.53;;;3.92;;
30020;SDS011;16861;52.294;7.760;2023-02-28T08:00:17;6.53;;;3.90;;
30020;SDS011;16861;52.294;7.760;2023-02-28T08:02:44;6.18;;;4.10;;
30020;SDS011;16861;52.294;7.760;2023-02-28T08:05:11;9.68;;;4.13;;
30020;SDS011;16861;52.294;7.760;2023-02-28T08:07:37;6.93;;;4.32;;
30020;SDS011;16861;52.294;7.760;2023-02-28T08:10:04;7.03;;;4.40;;
30020;SDS011;16861;52.294;7.760;2023-02-28T08:12:31;6.70;;;4.15;;
30020;SDS011;16861;52.294;7.760;2023-02-28T08:14:58;4.47;;;3.67;;
30020;SDS011;16861;52.294;7.760;2023-02-28T08:17:25;6.35;;;4.18;;
30020;SDS011;16861;52.294;7.760;2023-02-28T08:19:51;7.15;;;4.20;;
30020;SDS011;16861;52.294;7.760;2023-02-28T08:22:18;5.65;;;3.95;;
30020;SDS011;16861;52.294;7.760;2023-02-28T08:24:44;7.85;;;4.30;;
30020;SDS011;16861;52.294;7.760;2023-02-28T08:27:11;8.57;;;4.40;;
30020;SDS011;16861;52.294;7.760;2023-02-28T08:29:37;6.70;;;3.60;;
30020;SDS011;16861;52.294;7.760;2023-02-28T08:32:05;6.40;;;3.33;;
30020;SDS011;16861;52.294;7.760;2023-02-28T08:34:42;5.25;;;3.08;;
30020;SDS011;16861;52.294;7.760;2023-02-28T08:37:11;5.47;;;2.88;;
30020;SDS011;16861;52.294;7.760;2023-02-28T08:39:38;3.70;;;2.58;;
30020;SDS011;16861;52.294;7.760;2023-02-28T08:42:04;5.45;;;2.28;;
30020;SDS011;16861;52.294;7.760;2023-02-28T08:44:33;3.85;;;2.30;;
30020;SDS011;16861;52.294;7.760;2023-02-28T08:46:59;3.97;;;2.03;;
30020;SDS011;16861;52.294;7.760;2023-02-28T08:49:25;3.60;;;2.10;;
30020;SDS011;16861;52.294;7.760;2023-02-28T08:51:52;2.97;;;1.70;;
30020;SDS011;16861;52.294;7.760;2023-02-28T08:54:20;5.72;;;2.05;;
30020;SDS011;16861;52.294;7.760;2023-02-28T08:56:47;3.60;;;2.20;;
30020;SDS011;16861;52.294;7.760;2023-02-28T08:59:14;2.85;;;1.80;;
30020;SDS011;16861;52.294;7.760;2023-02-28T09:01:41;1.77;;;1.40;;
30020;SDS011;16861;52.294;7.760;2023-02-28T09:04:09;2.00;;;1.52;;
30020;SDS011;16861;52.294;7.760;2023-02-28T09:06:39;2.33;;;1.52;;
30020;SDS011;16861;52.294;7.760;2023-02-28T09:09:06;5.68;;;2.17;;
30020;SDS011;16861;52.294;7.760;2023-02-28T09:11:34;3.05;;;1.60;;
30020;SDS011;16861;52.294;7.760;2023-02-28T09:14:01;4.10;;;2.22;;
30020;SDS011;16861;52.294;7.760;2023-02-28T09:16:30;4.40;;;2.88;;
30020;SDS011;16861;52.294;7.760;2023-02-28T09:18:59;4.75;;;3.00;;
30020;SDS011;16861;52.294;7.760;2023-02-28T09:21:26;4.20;;;2.70;;
30020;SDS011;16861;52.294;7.760;2023-02-28T09:23:53;5.30;;;2.58;;
30020;SDS011;16861;52.294;7.760;2023-02-28T09:26:21;4.32;;;2.13;;
30020;SDS011;16861;52.294;7.760;2023-02-28T09:29:03;1.65;;;1.42;;
30020;SDS011;16861;52.294;7.760;2023-02-28T09:31:31;3.58;;;1.85;;
30020;SDS011;16861;52.294;7.760;2023-02-28T09:33:58;3.10;;;2.20;;
30020;SDS011;16861;52.294;7.760;2023-02-28T09:36:26;5.25;;;2.10;;
30020;SDS011;16861;52.294;7.760;2023-02-28T09:39:08;5.45;;;2.25;;
30020;SDS011;16861;52.294;7.760;2023-02-28T09:41:39;2.03;;;1.73;;
30020;SDS011;16861;52.294;7.760;2023-02-28T09:47:10;2.03;;;1.33;;
30020;SDS011;16861;52.294;7.760;2023-02-28T09:49:45;2.03;;;1.48;;
30020;SDS011;16861;52.294;7.760;2023-02-28T09:52:15;2.63;;;1.63;;
30020;SDS011;16861;52.294;7.760;2023-02-28T09:54:45;3.00;;;1.77;;
30020;SDS011;16861;52.294;7.760;2023-02-28T09:57:17;2.47;;;1.70;;
30020;SDS011;16861;52.294;7.760;2023-02-28T10:05:43;3.22;;;2.55;;
30020;SDS011;16861;52.294;7.760;2023-02-28T10:08:30;3.28;;;1.80;;
30020;SDS011;16861;52.294;7.760;2023-02-28T10:11:03;3.40;;;1.95;;
30020;SDS011;16861;52.294;7.760;2023-02-28T10:16:19;1.77;;;1.38;;
30020;SDS011;16861;52.294;7.760;2023-02-28T10:18:57;1.98;;;1.58;;
30020;SDS011;16861;52.294;7.760;2023-02-28T10:21:38;2.42;;;1.77;;
30020;SDS011;16861;52.294;7.760;2023-02-28T10:26:49;2.85;;;1.98;;
30020;SDS011;16861;52.294;7.760;2023-02-28T10:29:22;3.85;;;1.83;;
30020;SDS011;16861;52.294;7.760;2023-02-28T10:31:48;4.05;;;2.08;;
30020;SDS011;16861;52.294;7.760;2023-02-28T10:34:15;2.25;;;1.90;;
30020;SDS011;16861;52.294;7.760;2023-02-28T10:36:41;3.35;;;1.75;;
30020;SDS011;16861;52.294;7.760;2023-02-28T10:42:00;3.40;;;1.08;;
30020;SDS011;16861;52.294;7.760;2023-02-28T10:44:26;1.67;;;1.10;;
30020;SDS011;16861;52.294;7.760;2023-02-28T10:46:53;3.30;;;1.05;;
30020;SDS011;16861;52.294;7.760;2023-02-28T10:49:20;2.13;;;1.00;;
30020;SDS011;16861;52.294;7.760;2023-02-28T10:51:56;2.47;;;1.08;;
30020;SDS011;16861;52.294;7.760;2023-02-28T10:57:06;3.20;;;0.80;;
30020;SDS011;16861;52.294;7.760;2023-02-28T10:59:45;1.42;;;0.98;;
30020;SDS011;16861;52.294;7.760;2023-02-28T11:05:04;0.90;;;0.82;;
30020;SDS011;16861;52.294;7.760;2023-02-28T11:08:17;1.08;;;0.80;;
30020;SDS011;16861;52.294;7.760;2023-02-28T11:10:44;1.73;;;1.00;;
30020;SDS011;16861;52.294;7.760;2023-02-28T11:13:17;1.60;;;0.80;;
30020;SDS011;16861;52.294;7.760;2023-02-28T11:15:52;2.40;;;1.10;;
30020;SDS011;16861;52.294;7.760;2023-02-28T11:18:22;2.03;;;1.20;;
30020;SDS011;16861;52.294;7.760;2023-02-28T11:21:08;1.90;;;1.27;;
30020;SDS011;16861;52.294;7.760;2023-02-28T11:23:42;1.05;;;0.95;;
30020;SDS011;16861;52.294;7.760;2023-02-28T11:26:09;1.35;;;1.10;;
30020;SDS011;16861;52.294;7.760;2023-02-28T11:28:41;1.95;;;0.90;;
30020;SDS011;16861;52.294;7.760;2023-02-28T11:36:08;3.00;;;1.35;;
30020;SDS011;16861;52.294;7.760;2023-02-28T11:38:46;2.45;;;1.35;;
30020;SDS011;16861;52.294;7.760;2023-02-28T11:46:44;1.98;;;1.30;;
30020;SDS011;16861;52.294;7.760;2023-02-28T11:52:15;2.10;;;1.30;;
30020;SDS011;16861;52.294;7.760;2023-02-28T11:54:58;1.80;;;1.20;;
30020;SDS011;16861;52.294;7.760;2023-02-28T12:00:26;1.90;;;1.20;;
30020;SDS011;16861;52.294;7.760;2023-02-28T12:19:08;1.30;;;0.95;;
30020;SDS011;16861;52.294;7.760;2023-02-28T12:24:29;2.33;;;1.20;;
30020;SDS011;16861;52.294;7.760;2023-02-28T12:26:57;2.10;;;1.23;;
30020;SDS011;16861;52.294;7.760;2023-02-28T12:29:30;1.92;;;1.23;;
30020;SDS011;16861;52.294;7.760;2023-02-28T12:32:18;2.00;;;1.02;;
30020;SDS011;16861;52.294;7.760;2023-02-28T12:34:52;2.05;;;1.40;;
30020;SDS011;16861;52.294;7.760;2023-02-28T12:40:20;1.92;;;1.30;;
30020;SDS011;16861;52.294;7.760;2023-02-28T12:42:55;1.70;;;1.02;;
30020;SDS011;16861;52.294;7.760;2023-02-28T12:45:26;1.80;;;1.13;;
30020;SDS011;16861;52.294;7.760;2023-02-28T12:48:01;2.13;;;1.23;;
30020;SDS011;16861;52.294;7.760;2023-02-28T12:50:31;1.73;;;1.20;;
30020;SDS011;16861;52.294;7.760;2023-02-28T12:56:54;1.63;;;1.33;;
30020;SDS011;16861;52.294;7.760;2023-02-28T12:59:07;1.83;;;1.10;;
30020;SDS011;16861;52.294;7.760;2023-02-28T13:05:07;1.92;;;1.30;;
30020;SDS011;16861;52.294;7.760;2023-02-28T13:10:36;1.40;;;1.30;;
30020;SDS011;16861;52.294;7.760;2023-02-28T13:13:05;2.08;;;1.40;;
30020;SDS011;16861;52.294;7.760;2023-02-28T13:15:32;1.67;;;1.25;;
30020;SDS011;16861;52.294;7.760;2023-02-28T13:18:04;1.48;;;1.10;;
30020;SDS011;16861;52.294;7.760;2023-02-28T13:20:34;2.33;;;1.40;;
30020;SDS011;16861;52.294;7.760;2023-02-28T13:29:00;2.08;;;1.40;;
30020;SDS011;16861;52.294;7.760;2023-02-28T13:31:30;3.05;;;1.50;;
30020;SDS011;16861;52.294;7.760;2023-02-28T13:34:13;1.42;;;1.13;;
30020;SDS011;16861;52.294;7.760;2023-02-28T13:36:41;1.90;;;1.42;;
30020;SDS011;16861;52.294;7.760;2023-02-28T14:06:58;2.28;;;1.63;;
30020;SDS011;16861;52.294;7.760;2023-02-28T14:09:38;2.55;;;1.65;;
30020;SDS011;16861;52.294;7.760;2023-02-28T14:15:25;1.90;;;1.50;;
30020;SDS011;16861;52.294;7.760;2023-02-28T14:18:03;2.35;;;1.75;;
30020;SDS011;16861;52.294;7.760;2023-02-28T14:20:36;1.83;;;1.52;;
30020;SDS011;16861;52.294;7.760;2023-02-28T14:26:25;1.38;;;1.20;;
30020;SDS011;16861;52.294;7.760;2023-02-28T14:29:26;2.03;;;1.40;;
30020;SDS011;16861;52.294;7.760;2023-02-28T14:32:27;1.58;;;1.45;;
30020;SDS011;16861;52.294;7.760;2023-02-28T14:35:35;1.55;;;1.35;;
30020;SDS011;16861;52.294;7.760;2023-02-28T14:38:17;1.65;;;1.40;;
30020;SDS011;16861;52.294;7.760;2023-02-28T14:40:47;2.30;;;1.70;;
30020;SDS011;16861;52.294;7.760;2023-02-28T14:43:24;2.25;;;1.48;;
30020;SDS011;16861;52.294;7.760;2023-02-28T14:45:56;2.22;;;1.35;;
30020;SDS011;16861;52.294;7.760;2023-02-28T14:48:24;1.75;;;1.40;;
30020;SDS011;16861;52.294;7.760;2023-02-28T14:50:54;1.75;;;1.40;;
30020;SDS011;16861;52.294;7.760;2023-02-28T14:53:25;1.55;;;1.40;;
30020;SDS011;16861;52.294;7.760;2023-02-28T14:55:54;2.90;;;1.33;;
30020;SDS011;16861;52.294;7.760;2023-02-28T15:00:55;2.45;;;1.58;;
30020;SDS011;16861;52.294;7.760;2023-02-28T15:03:27;3.58;;;1.50;;
30020;SDS011;16861;52.294;7.760;2023-02-28T15:06:01;2.45;;;1.50;;
30020;SDS011;16861;52.294;7.760;2023-02-28T15:08:47;3.40;;;2.10;;
30020;SDS011;16861;52.294;7.760;2023-02-28T15:11:17;1.45;;;1.35;;
30020;SDS011;16861;52.294;7.760;2023-02-28T15:21:41;2.10;;;1.40;;
30020;SDS011;16861;52.294;7.760;2023-02-28T15:26:59;2.78;;;1.58;;
30020;SDS011;16861;52.294;7.760;2023-02-28T15:29:30;2.35;;;1.90;;
30020;SDS011;16861;52.294;7.760;2023-02-28T15:32:04;2.28;;;1.70;;
30020;SDS011;16861;52.294;7.760;2023-02-28T15:39:50;4.43;;;1.70;;
30020;SDS011;16861;52.294;7.760;2023-02-28T15:42:18;2.38;;;1.80;;
30020;SDS011;16861;52.294;7.760;2023-02-28T15:44:46;2.50;;;1.73;;
30020;SDS011;16861;52.294;7.760;2023-02-28T15:47:24;2.40;;;2.03;;
30020;SDS011;16861;52.294;7.760;2023-02-28T15:49:56;3.63;;;1.77;;
30020;SDS011;16861;52.294;7.760;2023-02-28T15:52:29;2.43;;;1.67;;
30020;SDS011;16861;52.294;7.760;2023-02-28T15:55:08;1.92;;;1.48;;
30020;SDS011;16861;52.294;7.760;2023-02-28T15:57:35;2.63;;;1.85;;
30020;SDS011;16861;52.294;7.760;2023-02-28T16:00:03;2.42;;;1.52;;
30020;SDS011;16861;52.294;7.760;2023-02-28T16:02:33;4.78;;;1.63;;
30020;SDS011;16861;52.294;7.760;2023-02-28T16:05:12;2.08;;;1.50;;
30020;SDS011;16861;52.294;7.760;2023-02-28T16:07:46;1.88;;;1.48;;
30020;SDS011;16861;52.294;7.760;2023-02-28T16:10:15;2.38;;;1.90;;
30020;SDS011;16861;52.294;7.760;2023-02-28T16:12:41;3.50;;;1.75;;
30020;SDS011;16861;52.294;7.760;2023-02-28T16:15:14;3.70;;;2.13;;
30020;SDS011;16861;52.294;7.760;2023-02-28T16:17:45;2.72;;;1.70;;
30020;SDS011;16861;52.294;7.760;2023-02-28T16:20:16;4.30;;;1.92;;
30020;SDS011;16861;52.294;7.760;2023-02-28T16:22:44;2.13;;;1.80;;
30020;SDS011;16861;52.294;7.760;2023-02-28T16:25:15;2.33;;;1.98;;
30020;SDS011;16861;52.294;7.760;2023-02-28T16:27:43;2.53;;;1.77;;
30020;SDS011;16861;52.294;7.760;2023-02-28T16:30:24;1.88;;;1.58;;
30020;SDS011;16861;52.294;7.760;2023-02-28T16:32:54;6.70;;;2.03;;
30020;SDS011;16861;52.294;7.760;2023-02-28T16:35:22;3.42;;;2.30;;
30020;SDS011;16861;52.294;7.760;2023-02-28T16:37:50;2.47;;;1.98;;
30020;SDS011;16861;52.294;7.760;2023-02-28T16:40:18;4.85;;;2.20;;
30020;SDS011;16861;52.294;7.760;2023-02-28T16:42:49;3.15;;;2.22;;
30020;SDS011;16861;52.294;7.760;2023-02-28T16:45:20;4.05;;;2.03;;
30020;SDS011;16861;52.294;7.760;2023-02-28T16:47:49;2.83;;;2.00;;
30020;SDS011;16861;52.294;7.760;2023-02-28T16:50:17;3.00;;;2.17;;
30020;SDS011;16861;52.294;7.760;2023-02-28T16:52:45;3.83;;;2.60;;
30020;SDS011;16861;52.294;7.760;2023-02-28T16:55:12;3.78;;;2.28;;
30020;SDS011;16861;52.294;7.760;2023-02-28T16:57:39;2.92;;;2.10;;
30020;SDS011;16861;52.294;7.760;2023-02-28T17:00:07;2.25;;;1.80;;
30020;SDS011;16861;52.294;7.760;2023-02-28T17:02:37;4.47;;;1.70;;
30020;SDS011;16861;52.294;7.760;2023-02-28T17:05:08;3.15;;;2.00;;
30020;SDS011;16861;52.294;7.760;2023-02-28T17:07:36;2.70;;;1.60;;
30020;SDS011;16861;52.294;7.760;2023-02-28T17:10:08;4.38;;;2.08;;
30020;SDS011;16861;52.294;7.760;2023-02-28T17:12:39;2.40;;;1.90;;
30020;SDS011;16861;52.294;7.760;2023-02-28T17:15:05;2.45;;;1.85;;
30020;SDS011;16861;52.294;7.760;2023-02-28T17:17:32;3.50;;;2.13;;
30020;SDS011;16861;52.294;7.760;2023-02-28T17:19:59;4.05;;;2.15;;
30020;SDS011;16861;52.294;7.760;2023-02-28T17:22:26;2.92;;;2.00;;
30020;SDS011;16861;52.294;7.760;2023-02-28T17:24:52;4.85;;;2.95;;
30020;SDS011;16861;52.294;7.760;2023-02-28T17:27:21;4.63;;;2.92;;
30020;SDS011;16861;52.294;7.760;2023-02-28T17:29:48;4.10;;;2.42;;
30020;SDS011;16861;52.294;7.760;2023-02-28T17:32:14;4.18;;;2.30;;
30020;SDS011;16861;52.294;7.760;2023-02-28T17:34:43;3.60;;;2.42;;
30020;SDS011;16861;52.294;7.760;2023-02-28T17:37:12;2.60;;;2.10;;
30020;SDS011;16861;52.294;7.760;2023-02-28T17:39:39;4.60;;;2.58;;
30020;SDS011;16861;52.294;7.760;2023-02-28T17:42:05;4.55;;;2.13;;
30020;SDS011;16861;52.294;7.760;2023-02-28T17:44:32;3.67;;;2.67;;
30020;SDS011;16861;52.294;7.760;2023-02-28T17:46:59;3.78;;;2.53;;
30020;SDS011;16861;52.294;7.760;2023-02-28T17:49:25;3.45;;;2.45;;